createdAt,value
2022-10-27T00:02:33.937Z,102155.72
2022-10-27T00:05:38.475Z,102150.41
2022-10-27T00:08:41.339Z,102150.41
2022-10-27T00:11:44.161Z,102158.38
2022-10-27T00:14:46.954Z,102159.22
2022-10-27T00:17:49.758Z,102154.84
2022-10-27T00:21:05.687Z,102160.16
2022-10-27T00:24:08.505Z,102167.28
2022-10-27T00:27:11.446Z,102171.72
2022-10-27T00:30:14.482Z,102170.00
2022-10-27T00:33:17.343Z,102177.09
2022-10-27T00:36:23.379Z,102189.56
2022-10-27T00:39:26.271Z,102185.16
2022-10-27T00:42:29.094Z,102190.44
2022-10-27T00:45:32.311Z,102192.22
2022-10-27T00:48:35.596Z,102190.38
2022-10-27T00:51:42.489Z,102203.69
2022-10-27T00:54:45.414Z,102199.31
2022-10-27T00:57:52.368Z,102213.47
2022-10-27T01:00:55.641Z,102204.63
2022-10-27T01:03:58.747Z,102211.75
2022-10-27T01:07:03.308Z,102201.13
2022-10-27T01:10:07.022Z,102209.09
2022-10-27T01:13:10.327Z,102222.44
2022-10-27T01:16:24.884Z,102220.63
2022-10-27T01:19:56.881Z,102212.66
2022-10-27T01:23:06.267Z,102211.81
2022-10-27T01:26:42.498Z,102219.78
2022-10-27T01:30:06.386Z,102223.31
2022-10-27T01:33:15.894Z,102230.44
2022-10-27T01:36:25.529Z,102216.19
2022-10-27T01:39:31.759Z,102217.13
2022-10-27T01:42:41.879Z,102229.63
2022-10-27T01:45:45.111Z,102234.91
2022-10-27T01:48:49.518Z,102241.13
2022-10-27T01:51:52.511Z,102235.84
2022-10-27T01:54:56.317Z,102229.63
2022-10-27T01:58:27.275Z,102246.50
2022-10-27T02:01:44.313Z,102244.72
2022-10-27T02:04:58.190Z,102244.78
2022-10-27T02:08:09.212Z,102248.28
2022-10-27T02:11:13.233Z,102257.16
2022-10-27T02:14:16.741Z,102257.16
2022-10-27T02:17:21.462Z,102256.25
2022-10-27T02:20:29.004Z,102261.59
2022-10-27T02:23:32.929Z,102266.91
2022-10-27T02:26:43.721Z,102266.03
2022-10-27T02:29:49.063Z,102272.25
2022-10-27T02:32:52.446Z,102264.28
2022-10-27T02:35:57.788Z,102266.09
2022-10-27T02:39:00.650Z,102265.19
2022-10-27T02:42:04.447Z,102264.31
2022-10-27T02:45:08.198Z,102266.97
2022-10-27T02:48:10.961Z,102266.09
2022-10-27T02:51:15.203Z,102266.09
2022-10-27T02:54:18.008Z,102266.97
2022-10-27T02:57:20.898Z,102266.97
2022-10-27T03:00:23.754Z,102276.75
2022-10-27T03:03:26.565Z,102273.19
2022-10-27T03:06:30.684Z,102273.19
2022-10-27T03:09:33.449Z,102284.75
2022-10-27T03:12:36.238Z,102286.50
2022-10-27T03:15:39.208Z,102291.84
2022-10-27T03:18:41.965Z,102292.75
2022-10-27T03:21:46.191Z,102300.78
2022-10-27T03:24:48.977Z,102302.50
2022-10-27T03:27:51.780Z,102295.41
2022-10-27T03:30:54.588Z,102298.13
2022-10-27T03:33:57.337Z,102301.66
2022-10-27T03:37:01.465Z,102307.84
2022-10-27T03:40:04.643Z,102317.66
2022-10-27T03:43:08.513Z,102313.16
2022-10-27T03:46:11.574Z,102319.44
2022-10-27T03:49:14.487Z,102318.56
2022-10-27T03:52:19.039Z,102315.88
2022-10-27T03:55:21.913Z,102324.75
2022-10-27T03:58:24.689Z,102325.66
2022-10-27T04:01:27.588Z,102325.66
2022-10-27T04:04:30.489Z,102325.66
2022-10-27T04:07:34.637Z,102330.13
2022-10-27T04:10:38.324Z,102333.66
2022-10-27T04:13:41.935Z,102327.47
2022-10-27T04:16:44.885Z,102329.25
2022-10-27T04:19:47.680Z,102333.66
2022-10-27T04:22:52.179Z,102341.66
2022-10-27T04:25:55.227Z,102336.31
2022-10-27T04:28:57.990Z,102342.53
2022-10-27T04:32:00.980Z,102352.31
2022-10-27T04:35:03.773Z,102358.47
2022-10-27T04:38:07.905Z,102356.78
2022-10-27T04:41:10.795Z,102354.13
2022-10-27T04:44:13.695Z,102361.22
2022-10-27T04:47:16.605Z,102360.34
2022-10-27T04:50:19.391Z,102364.78
2022-10-27T04:53:23.703Z,102368.34
2022-10-27T04:56:26.482Z,102363.94
2022-10-27T04:59:29.370Z,102366.59
2022-10-27T05:02:34.724Z,102371.03
2022-10-27T05:05:40.707Z,102381.66
2022-10-27T05:08:44.918Z,102381.66
2022-10-27T05:11:47.777Z,102386.09
2022-10-27T05:14:50.573Z,102392.31
2022-10-27T05:17:54.016Z,102391.44
2022-10-27T05:20:57.376Z,102396.75
2022-10-27T05:24:01.716Z,102398.56
2022-10-27T05:27:04.679Z,102398.59
2022-10-27T05:30:09.306Z,102404.78
2022-10-27T05:33:12.282Z,102402.13
2022-10-27T05:36:15.187Z,102409.25
2022-10-27T05:39:19.440Z,102408.38
2022-10-27T05:42:22.220Z,102414.56
2022-10-27T05:45:25.715Z,102420.78
2022-10-27T05:48:29.894Z,102416.34
2022-10-27T05:51:33.145Z,102420.78
2022-10-27T05:54:37.422Z,102413.72
2022-10-27T05:57:40.335Z,102412.00
2022-10-27T06:00:43.153Z,102423.63
2022-10-27T06:03:46.066Z,102426.31
2022-10-27T06:06:48.977Z,102437.03
2022-10-27T06:09:53.204Z,102429.91
2022-10-27T06:13:01.939Z,102431.78
2022-10-27T06:16:06.244Z,102425.63
2022-10-27T06:19:11.195Z,102445.16
2022-10-27T06:22:16.478Z,102441.69
2022-10-27T06:25:20.984Z,102442.59
2022-10-27T06:28:23.855Z,102450.63
2022-10-27T06:31:26.665Z,102448.00
2022-10-27T06:34:29.512Z,102456.03
2022-10-27T06:37:32.450Z,102454.22
2022-10-27T06:40:36.604Z,102458.69
2022-10-27T06:43:39.413Z,102461.34
2022-10-27T06:46:42.216Z,102461.34
2022-10-27T06:49:45.057Z,102465.78
2022-10-27T06:52:47.865Z,102467.56
2022-10-27T06:55:52.094Z,102464.91
2022-10-27T06:58:54.956Z,102471.13
2022-10-27T07:01:57.806Z,102474.66
2022-10-27T07:05:00.701Z,102472.00
2022-10-27T07:08:03.789Z,102470.25
2022-10-27T07:11:09.451Z,102481.78
2022-10-27T07:14:12.232Z,102492.44
2022-10-27T07:17:15.080Z,102494.16
2022-10-27T07:20:17.969Z,102496.81
2022-10-27T07:23:20.911Z,102500.38
2022-10-27T07:26:25.074Z,102501.25
2022-10-27T07:29:28.570Z,102490.59
2022-10-27T07:32:31.334Z,102491.50
2022-10-27T07:35:34.929Z,102489.72
2022-10-27T07:38:38.346Z,102484.41
2022-10-27T07:41:42.496Z,102492.38
2022-10-27T07:44:45.312Z,102496.81
2022-10-27T07:47:49.760Z,102493.31
2022-10-27T07:50:52.852Z,102498.63
2022-10-27T07:53:58.021Z,102501.25
2022-10-27T07:57:02.589Z,102506.59
2022-10-27T08:00:05.998Z,102495.88
2022-10-27T08:03:17.064Z,102497.66
2022-10-27T08:06:20.610Z,102494.13
2022-10-27T08:09:23.441Z,102498.56
2022-10-27T08:12:27.705Z,102499.44
2022-10-27T08:15:30.960Z,102495.88
2022-10-27T08:18:33.744Z,102498.56
2022-10-27T08:21:36.549Z,102504.75
2022-10-27T08:24:39.424Z,102505.66
2022-10-27T08:27:43.556Z,102512.75
2022-10-27T08:30:52.172Z,102511.88
2022-10-27T08:33:55.398Z,102511.88
2022-10-27T08:36:58.231Z,102510.97
2022-10-27T08:40:01.121Z,102509.16
2022-10-27T08:43:20.755Z,102505.66
2022-10-27T08:46:27.335Z,102510.06
2022-10-27T08:49:35.403Z,102516.31
2022-10-27T08:52:42.904Z,102521.63
2022-10-27T08:55:53.448Z,102526.97
2022-10-27T08:58:57.802Z,102522.47
2022-10-27T09:02:09.405Z,102526.97
2022-10-27T09:05:24.623Z,102524.28
2022-10-27T09:08:36.394Z,102534.94
2022-10-27T09:11:47.746Z,102534.94
2022-10-27T09:15:17.230Z,102534.03
2022-10-27T09:18:25.685Z,102534.91
2022-10-27T09:21:30.081Z,102540.19
2022-10-27T09:24:38.209Z,102532.19
2022-10-27T09:27:43.687Z,102528.66
2022-10-27T09:30:51.801Z,102527.75
2022-10-27T09:33:59.849Z,102526.88
2022-10-27T09:37:03.076Z,102532.19
2022-10-27T09:40:12.809Z,102532.19
2022-10-27T09:43:15.635Z,102531.34
2022-10-27T09:46:24.234Z,102539.34
2022-10-27T09:49:30.815Z,102542.84
2022-10-27T09:52:38.441Z,102540.19
2022-10-27T09:55:51.959Z,102540.19
2022-10-27T09:59:02.400Z,102545.50
2022-10-27T10:02:23.608Z,102537.53
2022-10-27T10:05:29.096Z,102539.31
2022-10-27T10:08:35.978Z,102541.03
2022-10-27T10:11:38.765Z,102538.38
2022-10-27T10:14:41.665Z,102534.84
2022-10-27T10:17:54.218Z,102537.47
2022-10-27T10:20:59.465Z,102535.72
2022-10-27T10:24:02.314Z,102530.38
2022-10-27T10:27:07.817Z,102524.16
2022-10-27T10:30:19.971Z,102520.63
2022-10-27T10:33:28.025Z,102526.81
2022-10-27T10:36:37.275Z,102525.03
2022-10-27T10:39:40.281Z,102522.38
2022-10-27T10:42:45.725Z,102522.38
2022-10-27T10:45:52.840Z,102528.56
2022-10-27T10:48:59.383Z,102528.56
2022-10-27T10:52:05.030Z,102533.88
2022-10-27T10:55:19.467Z,102526.78
2022-10-27T10:58:24.631Z,102530.38
2022-10-27T11:01:48.683Z,102536.59
2022-10-27T11:04:51.771Z,102517.06
2022-10-27T11:07:56.253Z,102525.06
2022-10-27T11:10:59.735Z,102530.38
2022-10-27T11:14:07.294Z,102520.66
2022-10-27T11:17:11.897Z,102525.97
2022-10-27T11:20:21.522Z,102525.06
2022-10-27T11:23:28.150Z,102522.38
2022-10-27T11:26:35.651Z,102514.41
2022-10-27T11:29:45.688Z,102519.72
2022-10-27T11:32:59.345Z,102520.56
2022-10-27T11:36:11.966Z,102517.06
2022-10-27T11:39:24.316Z,102511.72
2022-10-27T11:42:36.920Z,102509.06
2022-10-27T11:45:46.220Z,102516.16
2022-10-27T11:48:55.733Z,102516.16
2022-10-27T11:52:05.405Z,102510.88
2022-10-27T11:55:14.318Z,102517.06
2022-10-27T11:58:27.591Z,102509.06
2022-10-27T12:01:44.663Z,102512.63
2022-10-27T12:04:57.242Z,102510.84
2022-10-27T12:08:08.734Z,102499.25
2022-10-27T12:11:24.090Z,102503.75
2022-10-27T12:14:33.758Z,102494.88
2022-10-27T12:17:42.627Z,102491.28
2022-10-27T12:20:51.977Z,102485.94
2022-10-27T12:24:00.779Z,102484.22
2022-10-27T12:27:10.357Z,102478.88
2022-10-27T12:30:16.815Z,102478.00
2022-10-27T12:33:28.730Z,102466.47
2022-10-27T12:36:42.300Z,102470.94
2022-10-27T12:39:52.850Z,102472.66
2022-10-27T12:43:02.990Z,102471.78
2022-10-27T12:46:24.327Z,102469.13
2022-10-27T12:49:36.855Z,102468.22
2022-10-27T12:52:51.927Z,102463.78
2022-10-27T12:56:00.035Z,102459.31
2022-10-27T12:59:17.023Z,102461.09
2022-10-27T13:02:24.508Z,102456.66
2022-10-27T13:05:56.041Z,102456.66
2022-10-27T13:09:34.946Z,102447.81
2022-10-27T13:12:51.134Z,102454.00
2022-10-27T13:16:03.639Z,102448.69
2022-10-27T13:19:33.008Z,102446.94
2022-10-27T13:22:40.656Z,102449.59
2022-10-27T13:25:51.918Z,102446.94
2022-10-27T13:28:59.710Z,102443.34
2022-10-27T13:32:27.907Z,102447.75
2022-10-27T13:35:35.409Z,102439.78
2022-10-27T13:38:38.194Z,102431.78
2022-10-27T13:42:08.247Z,102436.19
2022-10-27T13:45:44.529Z,102436.19
2022-10-27T13:48:49.278Z,102435.34
2022-10-27T13:52:11.540Z,102432.69
2022-10-27T13:55:34.849Z,102422.03
2022-10-27T13:58:54.879Z,102427.34
2022-10-27T14:02:08.076Z,102422.03
2022-10-27T14:05:29.374Z,102431.84
2022-10-27T14:08:34.747Z,102427.34
2022-10-27T14:11:37.637Z,102423.84
2022-10-27T14:14:42.427Z,102422.03
2022-10-27T14:17:48.190Z,102414.88
2022-10-27T14:20:54.476Z,102413.13
2022-10-27T14:24:04.836Z,102420.19
2022-10-27T14:27:07.977Z,102413.13
2022-10-27T14:30:18.947Z,102409.56
2022-10-27T14:33:25.051Z,102410.47
2022-10-27T14:36:31.457Z,102414.03
2022-10-27T14:39:36.888Z,102413.13
2022-10-27T14:42:41.514Z,102411.38
2022-10-27T14:45:47.444Z,102412.25
2022-10-27T14:48:58.600Z,102413.13
2022-10-27T14:52:03.832Z,102407.81
2022-10-27T14:55:07.812Z,102406.03
2022-10-27T14:58:22.313Z,102406.00
2022-10-27T15:01:34.550Z,102403.31
2022-10-27T15:04:38.115Z,102399.78
2022-10-27T15:07:46.294Z,102411.31
2022-10-27T15:10:51.982Z,102402.50
2022-10-27T15:13:56.140Z,102404.22
2022-10-27T15:17:01.472Z,102395.38
2022-10-27T15:20:07.341Z,102396.28
2022-10-27T15:23:12.865Z,102395.38
2022-10-27T15:26:19.650Z,102401.59
2022-10-27T15:29:23.292Z,102390.06
2022-10-27T15:32:32.860Z,102390.94
2022-10-27T15:35:36.610Z,102387.41
2022-10-27T15:38:39.771Z,102392.72
2022-10-27T15:41:48.670Z,102395.34
2022-10-27T15:44:51.919Z,102390.91
2022-10-27T15:47:56.858Z,102393.56
2022-10-27T15:51:02.909Z,102390.91
2022-10-27T15:54:07.478Z,102388.25
2022-10-27T15:57:31.815Z,102390.06
2022-10-27T16:00:35.054Z,102383.84
2022-10-27T16:03:42.724Z,102370.53
2022-10-27T16:06:45.544Z,102365.19
2022-10-27T16:09:49.486Z,102369.66
2022-10-27T16:12:52.615Z,102369.66
2022-10-27T16:15:55.531Z,102368.75
2022-10-27T16:19:00.918Z,102371.41
2022-10-27T16:22:04.487Z,102374.03
2022-10-27T16:25:08.077Z,102382.03
2022-10-27T16:28:16.544Z,102372.25
2022-10-27T16:31:21.102Z,102374.06
2022-10-27T16:34:27.863Z,102385.56
2022-10-27T16:37:33.767Z,102380.28
2022-10-27T16:40:38.690Z,102377.63
2022-10-27T16:43:45.537Z,102374.09
2022-10-27T16:46:48.304Z,102374.97
2022-10-27T16:49:54.013Z,102367.91
2022-10-27T16:52:57.697Z,102373.22
2022-10-27T16:56:02.231Z,102368.75
2022-10-27T16:59:05.602Z,102383.84
2022-10-27T17:02:08.577Z,102370.53
2022-10-27T17:05:13.105Z,102374.94
2022-10-27T17:08:15.866Z,102371.41
2022-10-27T17:11:18.914Z,102377.59
2022-10-27T17:14:21.738Z,102376.75
2022-10-27T17:17:24.540Z,102381.19
2022-10-27T17:20:28.665Z,102375.84
2022-10-27T17:23:31.811Z,102381.19
2022-10-27T17:26:34.598Z,102376.75
2022-10-27T17:29:37.374Z,102372.34
2022-10-27T17:32:40.134Z,102358.09
2022-10-27T17:35:44.287Z,102358.09
2022-10-27T17:38:47.048Z,102345.72
2022-10-27T17:41:49.811Z,102347.44
2022-10-27T17:44:52.565Z,102334.13
2022-10-27T17:47:55.443Z,102337.63
2022-10-27T17:51:08.292Z,102337.63
2022-10-27T17:54:12.056Z,102333.25
2022-10-27T17:57:18.286Z,102327.91
2022-10-27T18:00:21.883Z,102327.91
2022-10-27T18:03:25.104Z,102328.81
2022-10-27T18:06:30.265Z,102322.63
2022-10-27T18:09:33.072Z,102313.75
2022-10-27T18:12:35.915Z,102316.41
2022-10-27T18:15:38.679Z,102327.06
2022-10-27T18:18:42.251Z,102335.06
2022-10-27T18:21:48.133Z,102331.47
2022-10-27T18:24:50.908Z,102340.34
2022-10-27T18:27:54.429Z,102330.56
2022-10-27T18:31:01.335Z,102326.13
2022-10-27T18:34:05.684Z,102324.38
2022-10-27T18:37:09.867Z,102331.47
2022-10-27T18:40:13.942Z,102332.34
2022-10-27T18:43:16.790Z,102326.16
2022-10-27T18:46:20.726Z,102334.13
2022-10-27T18:49:46.739Z,102324.41
2022-10-27T18:52:47.689Z,102308.44
2022-10-27T18:55:50.530Z,102316.41
2022-10-27T18:58:54.791Z,102324.47
2022-10-27T19:01:57.758Z,102324.41
2022-10-27T19:05:00.652Z,102309.31
2022-10-27T19:08:04.853Z,102310.16
2022-10-27T19:11:09.657Z,102317.25
2022-10-27T19:14:12.543Z,102311.00
2022-10-27T19:17:15.315Z,102310.09
2022-10-27T19:20:18.258Z,102312.78
2022-10-27T19:23:22.367Z,102311.88
2022-10-27T19:26:28.525Z,102305.69
2022-10-27T19:29:31.284Z,102303.94
2022-10-27T19:32:35.073Z,102310.16
2022-10-27T19:35:37.853Z,102305.72
2022-10-27T19:38:43.272Z,102306.59
2022-10-27T19:41:46.272Z,102305.78
2022-10-27T19:44:50.483Z,102304.84
2022-10-27T19:47:53.522Z,102308.44
2022-10-27T19:50:56.827Z,102300.44
2022-10-27T19:54:02.540Z,102307.50
2022-10-27T19:57:05.487Z,102300.34
2022-10-27T20:00:09.600Z,102296.78
2022-10-27T20:03:12.456Z,102296.78
2022-10-27T20:06:15.852Z,102295.91
2022-10-27T20:09:22.005Z,102289.66
2022-10-27T20:12:24.794Z,102295.88
2022-10-27T20:15:27.541Z,102298.50
2022-10-27T20:18:30.327Z,102295.84
2022-10-27T20:21:33.373Z,102287.84
2022-10-27T20:24:37.673Z,102286.94
2022-10-27T20:27:40.507Z,102283.34
2022-10-27T20:30:43.253Z,102287.84
2022-10-27T20:33:46.037Z,102278.94
2022-10-27T20:36:48.804Z,102273.63
2022-10-27T20:39:52.995Z,102266.59
2022-10-27T20:42:56.014Z,102273.69
2022-10-27T20:45:59.889Z,102281.69
2022-10-27T20:49:04.071Z,102279.03
2022-10-27T20:52:07.129Z,102271.94
2022-10-27T20:55:12.477Z,102263.94
2022-10-27T20:58:15.879Z,102261.28
2022-10-27T21:01:27.244Z,102253.28
2022-10-27T21:04:30.277Z,102242.63
2022-10-27T21:07:33.195Z,102233.75
2022-10-27T21:10:41.779Z,102229.31
2022-10-27T21:13:44.594Z,102229.31
2022-10-27T21:16:51.463Z,102231.97
2022-10-27T21:19:54.648Z,102228.44
2022-10-27T21:22:57.582Z,102228.44
2022-10-27T21:26:04.449Z,102220.44
2022-10-27T21:29:07.281Z,102221.38
2022-10-27T21:32:10.071Z,102216.06
2022-10-27T21:35:12.858Z,102210.72
2022-10-27T21:38:15.639Z,102205.41
2022-10-27T21:41:21.480Z,102211.59
2022-10-27T21:44:26.993Z,102217.78
2022-10-27T21:47:29.795Z,102215.13
2022-10-27T21:50:32.668Z,102212.47
2022-10-27T21:53:35.437Z,102211.59
2022-10-27T21:56:42.378Z,102210.72
2022-10-27T21:59:45.185Z,102206.31
2022-10-27T22:02:47.946Z,102203.63
2022-10-27T22:05:55.254Z,102197.47
2022-10-27T22:08:59.209Z,102203.69
2022-10-27T22:12:03.539Z,102201.94
2022-10-27T22:15:07.031Z,102202.81
2022-10-27T22:18:09.792Z,102197.47
2022-10-27T22:21:15.662Z,102184.16
2022-10-27T22:24:18.449Z,102191.25
2022-10-27T22:27:22.617Z,102191.25
2022-10-27T22:30:25.427Z,102193.91
2022-10-27T22:33:28.243Z,102181.50
2022-10-27T22:36:31.506Z,102190.38
2022-10-27T22:39:34.314Z,102191.31
2022-10-27T22:42:38.445Z,102193.09
2022-10-27T22:45:41.235Z,102187.75
2022-10-27T22:48:44.028Z,102194.88
2022-10-27T22:51:48.520Z,102186.00
2022-10-27T22:54:51.287Z,102191.31
2022-10-27T22:57:55.962Z,102190.47
2022-10-27T23:01:05.091Z,102192.19
2022-10-27T23:04:09.631Z,102181.50
2022-10-27T23:07:12.472Z,102185.09
2022-10-27T23:10:15.456Z,102184.16
2022-10-27T23:13:19.634Z,102174.44
2022-10-27T23:16:22.403Z,102171.78
2022-10-27T23:19:25.189Z,102170.91
2022-10-27T23:22:28.031Z,102165.56
2022-10-27T23:25:32.803Z,102161.19
2022-10-27T23:28:39.383Z,102163.84
2022-10-27T23:31:42.162Z,102162.06
2022-10-27T23:34:45.295Z,102159.41
2022-10-27T23:37:48.066Z,102162.06
2022-10-27T23:40:51.650Z,102161.19
2022-10-27T23:43:58.337Z,102151.41
2022-10-27T23:47:01.127Z,102147.88
2022-10-27T23:50:03.922Z,102144.25
2022-10-27T23:53:07.180Z,102131.88
2022-10-27T23:56:11.888Z,102140.72
2022-10-27T23:59:16.018Z,102134.56
